sensor_id;sensor_type;location;lat;lon;timestamp;pressure;altitude;pressure_sealevel;temperature;humidity
3206;BME280;1615;53.602;11.418;2022-12-18T00:01:47;102668.03;;;-3.03;100.00
3206;BME280;1615;53.602;11.418;2022-12-18T00:04:24;102676.72;;;-3.09;100.00
3206;BME280;1615;53.602;11.418;2022-12-18T00:06:50;102604.72;;;-3.47;100.00
3206;BME280;1615;53.602;11.418;2022-12-18T00:09:16;102666.34;;;-3.04;100.00
3206;BME280;1615;53.602;11.418;2022-12-18T00:11:42;102576.38;;;-3.75;100.00
3206;BME280;1615;53.602;11.418;2022-12-18T00:14:09;102667.19;;;-3.29;100.00
3206;BME280;1615;53.602;11.418;2022-12-18T00:16:35;102626.09;;;-3.55;100.00
3206;BME280;1615;53.602;11.418;2022-12-18T00:19:02;102619.06;;;-3.56;100.00
3206;BME280;1615;53.602;11.418;2022-12-18T00:21:29;102677.31;;;-3.15;100.00
3206;BME280;1615;53.602;11.418;2022-12-18T00:23:55;102680.19;;;-3.16;100.00
3206;BME280;1615;53.602;11.418;2022-12-18T00:26:26;102675.97;;;-3.19;100.00
3206;BME280;1615;53.602;11.418;2022-12-18T00:28:53;102671.59;;;-3.20;100.00
3206;BME280;1615;53.602;11.418;2022-12-18T00:31:22;102671.59;;;-3.20;100.00
3206;BME280;1615;53.602;11.418;2022-12-18T00:33:48;102695.75;;;-3.20;100.00
3206;BME280;1615;53.602;11.418;2022-12-18T00:36:24;102697.72;;;-3.22;100.00
3206;BME280;1615;53.602;11.418;2022-12-18T00:38:50;102693.88;;;-3.19;100.00
3206;BME280;1615;53.602;11.418;2022-12-18T00:41:17;102696.72;;;-3.21;100.00
3206;BME280;1615;53.602;11.418;2022-12-18T00:44:04;102220.03;;;-6.20;100.00
3206;BME280;1615;53.602;11.418;2022-12-18T00:46:29;102696.56;;;-3.19;100.00
3206;BME280;1615;53.602;11.418;2022-12-18T00:48:54;102605.41;;;-3.70;100.00
3206;BME280;1615;53.602;11.418;2022-12-18T00:51:20;102694.38;;;-3.24;100.00
3206;BME280;1615;53.602;11.418;2022-12-18T00:53:45;102695.19;;;-3.23;100.00
3206;BME280;1615;53.602;11.418;2022-12-18T00:56:10;102693.28;;;-3.31;100.00
3206;BME280;1615;53.602;11.418;2022-12-18T00:58:36;102692.31;;;-3.30;100.00
3206;BME280;1615;53.602;11.418;2022-12-18T01:01:03;102689.06;;;-3.33;100.00
3206;BME280;1615;53.602;11.418;2022-12-18T01:03:29;102714.72;;;-3.31;100.00
3206;BME280;1615;53.602;11.418;2022-12-18T01:05:54;102686.94;;;-3.30;100.00
3206;BME280;1615;53.602;11.418;2022-12-18T01:08:19;102689.19;;;-3.43;100.00
3206;BME280;1615;53.602;11.418;2022-12-18T01:10:45;102704.44;;;-3.43;100.00
3206;BME280;1615;53.602;11.418;2022-12-18T01:13:10;102707.25;;;-3.45;100.00
3206;BME280;1615;53.602;11.418;2022-12-18T01:15:35;102718.38;;;-3.40;100.00
3206;BME280;1615;53.602;11.418;2022-12-18T01:18:01;102705.25;;;-3.43;100.00
3206;BME280;1615;53.602;11.418;2022-12-18T01:20:26;102700.53;;;-3.49;100.00
3206;BME280;1615;53.602;11.418;2022-12-18T01:22:51;102715.44;;;-3.46;100.00
3206;BME280;1615;53.602;11.418;2022-12-18T01:25:17;102704.72;;;-3.46;100.00
3206;BME280;1615;53.602;11.418;2022-12-18T01:27:42;102596.47;;;-4.14;100.00
3206;BME280;1615;53.602;11.418;2022-12-18T01:30:08;102727.03;;;-3.46;100.00
3206;BME280;1615;53.602;11.418;2022-12-18T01:32:33;102665.78;;;-3.76;100.00
3206;BME280;1615;53.602;11.418;2022-12-18T01:34:58;102716.22;;;-3.36;100.00
3206;BME280;1615;53.602;11.418;2022-12-18T01:37:24;102653.91;;;-3.73;100.00
3206;BME280;1615;53.602;11.418;2022-12-18T01:39:49;102722.78;;;-3.31;100.00
3206;BME280;1615;53.602;11.418;2022-12-18T01:42:15;102728.09;;;-3.39;100.00
3206;BME280;1615;53.602;11.418;2022-12-18T01:49:50;102671.81;;;-3.74;100.00
3206;BME280;1615;53.602;11.418;2022-12-18T01:52:17;102726.84;;;-3.44;100.00
3206;BME280;1615;53.602;11.418;2022-12-18T01:54:44;102670.75;;;-3.81;100.00
3206;BME280;1615;53.602;11.418;2022-12-18T01:57:10;102648.44;;;-3.89;100.00
3206;BME280;1615;53.602;11.418;2022-12-18T01:59:36;102735.75;;;-3.44;100.00
3206;BME280;1615;53.602;11.418;2022-12-18T02:02:03;102683.78;;;-3.86;100.00
3206;BME280;1615;53.602;11.418;2022-12-18T02:04:29;102720.66;;;-3.62;100.00
3206;BME280;1615;53.602;11.418;2022-12-18T02:07:15;102736.59;;;-3.43;100.00
3206;BME280;1615;53.602;11.418;2022-12-18T02:12:23;102742.78;;;-3.43;100.00
3206;BME280;1615;53.602;11.418;2022-12-18T02:14:58;102734.69;;;-3.51;100.00
3206;BME280;1615;53.602;11.418;2022-12-18T02:17:38;102743.34;;;-3.57;100.00
3206;BME280;1615;53.602;11.418;2022-12-18T02:26:25;102641.81;;;-4.30;100.00
3206;BME280;1615;53.602;11.418;2022-12-18T02:29:01;102669.00;;;-3.90;100.00
3206;BME280;1615;53.602;11.418;2022-12-18T02:31:31;102693.19;;;-3.82;100.00
3206;BME280;1615;53.602;11.418;2022-12-18T02:34:02;102696.34;;;-3.86;100.00
3206;BME280;1615;53.602;11.418;2022-12-18T02:36:28;102695.25;;;-3.76;100.00
3206;BME280;1615;53.602;11.418;2022-12-18T02:38:56;102699.31;;;-3.72;100.00
3206;BME280;1615;53.602;11.418;2022-12-18T02:41:25;102708.94;;;-3.79;100.00
3206;BME280;1615;53.602;11.418;2022-12-18T02:43:59;102701.38;;;-3.66;100.00
3206;BME280;1615;53.602;11.418;2022-12-18T02:48:55;102708.94;;;-3.79;100.00
3206;BME280;1615;53.602;11.418;2022-12-18T02:51:33;102708.03;;;-3.70;100.00
3206;BME280;1615;53.602;11.418;2022-12-18T02:54:10;102643.59;;;-4.21;100.00
3206;BME280;1615;53.602;11.418;2022-12-18T02:56:44;102716.00;;;-3.78;100.00
3206;BME280;1615;53.602;11.418;2022-12-18T02:59:14;102720.75;;;-3.72;100.00
3206;BME280;1615;53.602;11.418;2022-12-18T03:04:40;102720.66;;;-3.80;100.00
3206;BME280;1615;53.602;11.418;2022-12-18T03:07:12;102663.91;;;-4.28;100.00
3206;BME280;1615;53.602;11.418;2022-12-18T03:09:43;102736.97;;;-3.91;100.00
3206;BME280;1615;53.602;11.418;2022-12-18T03:12:21;102694.09;;;-4.35;100.00
3206;BME280;1615;53.602;11.418;2022-12-18T03:14:59;102746.44;;;-3.96;100.00
3206;BME280;1615;53.602;11.418;2022-12-18T03:17:28;102745.13;;;-3.92;100.00
3206;BME280;1615;53.602;11.418;2022-12-18T03:19:56;102738.41;;;-3.96;100.00
3206;BME280;1615;53.602;11.418;2022-12-18T03:22:24;102746.88;;;-4.01;100.00
3206;BME280;1615;53.602;11.418;2022-12-18T03:24:53;102745.53;;;-4.05;100.00
3206;BME280;1615;53.602;11.418;2022-12-18T03:27:20;102754.69;;;-4.07;100.00
3206;BME280;1615;53.602;11.418;2022-12-18T03:30:13;102765.84;;;-4.12;100.00
3206;BME280;1615;53.602;11.418;2022-12-18T03:32:58;102702.13;;;-4.53;100.00
3206;BME280;1615;53.602;11.418;2022-12-18T03:35:28;102773.72;;;-4.10;100.00
3206;BME280;1615;53.602;11.418;2022-12-18T03:37:55;102769.50;;;-4.13;100.00
3206;BME280;1615;53.602;11.418;2022-12-18T03:40:24;102771.19;;;-4.12;100.00
3206;BME280;1615;53.602;11.418;2022-12-18T03:42:57;102768.91;;;-4.07;100.00
3206;BME280;1615;53.602;11.418;2022-12-18T03:45:38;102762.16;;;-4.11;100.00
3206;BME280;1615;53.602;11.418;2022-12-18T03:48:28;102771.78;;;-4.18;100.00
3206;BME280;1615;53.602;11.418;2022-12-18T03:51:50;102775.72;;;-4.12;100.00
3206;BME280;1615;53.602;11.418;2022-12-18T03:54:08;102767.84;;;-4.14;100.00
3206;BME280;1615;53.602;11.418;2022-12-18T03:56:46;102758.50;;;-4.10;100.00
3206;BME280;1615;53.602;11.418;2022-12-18T03:59:14;102757.41;;;-4.17;100.00
3206;BME280;1615;53.602;11.418;2022-12-18T04:01:46;102761.09;;;-4.18;100.00
3206;BME280;1615;53.602;11.418;2022-12-18T04:04:14;102763.91;;;-4.19;100.00
3206;BME280;1615;53.602;11.418;2022-12-18T04:06:41;102761.13;;;-4.27;100.00
3206;BME280;1615;53.602;11.418;2022-12-18T04:09:07;102695.56;;;-4.68;100.00
3206;BME280;1615;53.602;11.418;2022-12-18T04:11:32;102774.38;;;-4.26;100.00
3206;BME280;1615;53.602;11.418;2022-12-18T04:13:58;102779.75;;;-4.26;100.00
3206;BME280;1615;53.602;11.418;2022-12-18T04:16:24;102787.91;;;-4.27;100.00
3206;BME280;1615;53.602;11.418;2022-12-18T04:18:50;102787.06;;;-4.28;100.00
3206;BME280;1615;53.602;11.418;2022-12-18T04:21:15;102787.78;;;-4.26;100.00
3206;BME280;1615;53.602;11.418;2022-12-18T04:23:40;102799.75;;;-4.30;100.00
3206;BME280;1615;53.602;11.418;2022-12-18T04:26:06;102794.09;;;-4.27;100.00
3206;BME280;1615;53.602;11.418;2022-12-18T04:28:31;102789.63;;;-4.36;100.00
3206;BME280;1615;53.602;11.418;2022-12-18T04:30:56;102759.00;;;-4.51;100.00
3206;BME280;1615;53.602;11.418;2022-12-18T04:33:22;102729.38;;;-4.76;100.00
3206;BME280;1615;53.602;11.418;2022-12-18T04:35:47;102785.09;;;-4.35;100.00
3206;BME280;1615;53.602;11.418;2022-12-18T04:38:13;102779.75;;;-4.35;100.00
3206;BME280;1615;53.602;11.418;2022-12-18T04:40:38;102772.66;;;-4.27;100.00
3206;BME280;1615;53.602;11.418;2022-12-18T04:43:04;102760.28;;;-4.28;100.00
3206;BME280;1615;53.602;11.418;2022-12-18T04:45:30;102670.00;;;-4.89;100.00
3206;BME280;1615;53.602;11.418;2022-12-18T04:48:00;102758.31;;;-4.26;100.00
3206;BME280;1615;53.602;11.418;2022-12-18T04:50:27;102764.81;;;-4.28;100.00
3206;BME280;1615;53.602;11.418;2022-12-18T04:52:52;102769.38;;;-4.38;100.00
3206;BME280;1615;53.602;11.418;2022-12-18T04:55:18;102772.09;;;-4.48;100.00
3206;BME280;1615;53.602;11.418;2022-12-18T04:57:43;102672.47;;;-4.96;100.00
3206;BME280;1615;53.602;11.418;2022-12-18T05:00:09;102775.53;;;-4.38;100.00
3206;BME280;1615;53.602;11.418;2022-12-18T05:02:34;102779.53;;;-4.42;100.00
3206;BME280;1615;53.602;11.418;2022-12-18T05:05:00;102782.47;;;-4.45;100.00
3206;BME280;1615;53.602;11.418;2022-12-18T05:07:25;102813.38;;;-4.50;100.00
3206;BME280;1615;53.602;11.418;2022-12-18T05:09:51;102800.94;;;-4.42;100.00
3206;BME280;1615;53.602;11.418;2022-12-18T05:12:16;102804.56;;;-4.43;100.00
3206;BME280;1615;53.602;11.418;2022-12-18T05:14:41;102800.28;;;-4.26;100.00
3206;BME280;1615;53.602;11.418;2022-12-18T05:17:07;102723.53;;;-4.62;100.00
3206;BME280;1615;53.602;11.418;2022-12-18T05:19:32;102799.38;;;-4.08;100.00
3206;BME280;1615;53.602;11.418;2022-12-18T05:21:57;102797.97;;;-4.12;100.00
3206;BME280;1615;53.602;11.418;2022-12-18T05:24:23;102811.59;;;-4.32;100.00
3206;BME280;1615;53.602;11.418;2022-12-18T05:26:48;102805.66;;;-4.26;100.00
3206;BME280;1615;53.602;11.418;2022-12-18T05:29:13;102785.41;;;-4.38;100.00
3206;BME280;1615;53.602;11.418;2022-12-18T05:31:39;102755.63;;;-4.62;100.00
3206;BME280;1615;53.602;11.418;2022-12-18T05:34:05;102821.72;;;-4.26;100.00
3206;BME280;1615;53.602;11.418;2022-12-18T05:36:30;102821.84;;;-4.28;100.00
3206;BME280;1615;53.602;11.418;2022-12-18T05:38:56;102769.75;;;-4.70;100.00
3206;BME280;1615;53.602;11.418;2022-12-18T05:41:21;102800.94;;;-4.51;100.00
3206;BME280;1615;53.602;11.418;2022-12-18T05:43:46;102796.72;;;-4.54;100.00
3206;BME280;1615;53.602;11.418;2022-12-18T05:46:15;102761.88;;;-4.71;100.00
3206;BME280;1615;53.602;11.418;2022-12-18T05:48:42;102717.91;;;-4.96;100.00
3206;BME280;1615;53.602;11.418;2022-12-18T05:51:10;102782.53;;;-4.54;100.00
3206;BME280;1615;53.602;11.418;2022-12-18T05:53:36;102802.66;;;-4.60;100.00
3206;BME280;1615;53.602;11.418;2022-12-18T05:56:03;102775.41;;;-4.73;100.00
3206;BME280;1615;53.602;11.418;2022-12-18T05:58:29;102799.25;;;-4.52;100.00
3206;BME280;1615;53.602;11.418;2022-12-18T06:00:55;102801.13;;;-4.53;100.00
3206;BME280;1615;53.602;11.418;2022-12-18T06:03:21;102706.25;;;-5.14;100.00
3206;BME280;1615;53.602;11.418;2022-12-18T06:05:46;102292.63;;;-7.66;100.00
3206;BME280;1615;53.602;11.418;2022-12-18T06:08:12;102811.50;;;-4.50;100.00
3206;BME280;1615;53.602;11.418;2022-12-18T06:10:38;102816.72;;;-4.48;100.00
3206;BME280;1615;53.602;11.418;2022-12-18T06:13:04;102824.63;;;-4.47;100.00
3206;BME280;1615;53.602;11.418;2022-12-18T06:15:30;102718.31;;;-5.00;100.00
3206;BME280;1615;53.602;11.418;2022-12-18T06:17:55;102817.00;;;-4.42;100.00
3206;BME280;1615;53.602;11.418;2022-12-18T06:20:21;102789.69;;;-4.55;100.00
3206;BME280;1615;53.602;11.418;2022-12-18T06:22:46;102808.56;;;-4.47;100.00
3206;BME280;1615;53.602;11.418;2022-12-18T06:25:11;102815.13;;;-4.41;100.00
3206;BME280;1615;53.602;11.418;2022-12-18T06:27:37;102816.69;;;-4.39;100.00
3206;BME280;1615;53.602;11.418;2022-12-18T06:30:03;102775.38;;;-4.63;100.00
3206;BME280;1615;53.602;11.418;2022-12-18T06:32:29;102724.22;;;-4.97;100.00
3206;BME280;1615;53.602;11.418;2022-12-18T06:34:54;102819.66;;;-4.42;100.00
3206;BME280;1615;53.602;11.418;2022-12-18T06:37:20;102833.63;;;-4.48;100.00
3206;BME280;1615;53.602;11.418;2022-12-18T06:39:46;102819.00;;;-4.53;100.00
3206;BME280;1615;53.602;11.418;2022-12-18T06:42:11;102811.06;;;-4.45;100.00
3206;BME280;1615;53.602;11.418;2022-12-18T06:44:36;102722.25;;;-5.04;100.00
3206;BME280;1615;53.602;11.418;2022-12-18T06:47:02;102789.28;;;-4.60;100.00
3206;BME280;1615;53.602;11.418;2022-12-18T06:49:27;102813.75;;;-4.45;100.00
3206;BME280;1615;53.602;11.418;2022-12-18T06:51:53;102827.44;;;-4.48;100.00
3206;BME280;1615;53.602;11.418;2022-12-18T06:54:18;102631.53;;;-5.71;100.00
3206;BME280;1615;53.602;11.418;2022-12-18T06:56:45;102819.88;;;-4.72;100.00
3206;BME280;1615;53.602;11.418;2022-12-18T06:59:11;102830.97;;;-4.57;100.00
3206;BME280;1615;53.602;11.418;2022-12-18T07:01:37;102833.41;;;-4.64;100.00
3206;BME280;1615;53.602;11.418;2022-12-18T07:04:02;102743.00;;;-5.16;100.00
3206;BME280;1615;53.602;11.418;2022-12-18T07:06:27;102844.38;;;-4.67;100.00
3206;BME280;1615;53.602;11.418;2022-12-18T07:08:53;102843.09;;;-4.63;100.00
3206;BME280;1615;53.602;11.418;2022-12-18T07:11:19;102828.34;;;-4.86;100.00
3206;BME280;1615;53.602;11.418;2022-12-18T07:13:45;102854.06;;;-4.56;100.00
3206;BME280;1615;53.602;11.418;2022-12-18T07:16:13;102862.66;;;-4.53;100.00
3206;BME280;1615;53.602;11.418;2022-12-18T07:18:39;102856.19;;;-4.60;100.00
3206;BME280;1615;53.602;11.418;2022-12-18T07:21:06;102871.94;;;-4.57;100.00
3206;BME280;1615;53.602;11.418;2022-12-18T07:23:33;102882.50;;;-4.65;100.00
3206;BME280;1615;53.602;11.418;2022-12-18T07:26:12;102816.00;;;-5.06;100.00
3206;BME280;1615;53.602;11.418;2022-12-18T07:28:39;102868.88;;;-4.62;100.00
3206;BME280;1615;53.602;11.418;2022-12-18T07:31:07;102787.31;;;-5.42;100.00
3206;BME280;1615;53.602;11.418;2022-12-18T07:33:33;102867.75;;;-4.69;100.00
3206;BME280;1615;53.602;11.418;2022-12-18T07:36:00;102865.25;;;-4.80;100.00
3206;BME280;1615;53.602;11.418;2022-12-18T07:38:25;102865.94;;;-4.78;100.00
3206;BME280;1615;53.602;11.418;2022-12-18T07:40:51;102889.16;;;-4.69;100.00
3206;BME280;1615;53.602;11.418;2022-12-18T07:43:16;102886.59;;;-4.61;100.00
3206;BME280;1615;53.602;11.418;2022-12-18T07:45:42;102871.69;;;-4.73;100.00
3206;BME280;1615;53.602;11.418;2022-12-18T07:48:08;102891.25;;;-4.63;100.00
3206;BME280;1615;53.602;11.418;2022-12-18T07:50:33;102883.50;;;-4.66;100.00
3206;BME280;1615;53.602;11.418;2022-12-18T07:52:58;102887.88;;;-4.65;100.00
3206;BME280;1615;53.602;11.418;2022-12-18T07:55:29;102795.47;;;-5.24;100.00
3206;BME280;1615;53.602;11.418;2022-12-18T07:57:54;102889.44;;;-4.72;100.00
3206;BME280;1615;53.602;11.418;2022-12-18T08:00:19;102893.22;;;-4.65;100.00
3206;BME280;1615;53.602;11.418;2022-12-18T08:02:45;102918.16;;;-4.64;100.00
3206;BME280;1615;53.602;11.418;2022-12-18T08:05:10;102893.06;;;-4.63;100.00
3206;BME280;1615;53.602;11.418;2022-12-18T08:07:35;102882.13;;;-4.79;100.00
3206;BME280;1615;53.602;11.418;2022-12-18T08:10:01;102905.47;;;-4.62;100.00
3206;BME280;1615;53.602;11.418;2022-12-18T08:12:26;102880.13;;;-4.77;100.00
3206;BME280;1615;53.602;11.418;2022-12-18T08:14:51;102910.97;;;-4.64;100.00
3206;BME280;1615;53.602;11.418;2022-12-18T08:17:16;102905.91;;;-4.67;100.00
3206;BME280;1615;53.602;11.418;2022-12-18T08:19:42;102900.41;;;-4.65;100.00
3206;BME280;1615;53.602;11.418;2022-12-18T08:22:07;102900.28;;;-4.64;100.00
3206;BME280;1615;53.602;11.418;2022-12-18T08:24:32;102912.22;;;-4.58;100.00
3206;BME280;1615;53.602;11.418;2022-12-18T08:26:59;102915.88;;;-4.50;100.00
3206;BME280;1615;53.602;11.418;2022-12-18T08:29:24;102906.13;;;-4.41;100.00
3206;BME280;1615;53.602;11.418;2022-12-18T08:31:49;102898.09;;;-4.41;100.00
3206;BME280;1615;53.602;11.418;2022-12-18T08:34:15;102819.91;;;-4.91;100.00
3206;BME280;1615;53.602;11.418;2022-12-18T08:36:40;102897.81;;;-4.29;100.00
3206;BME280;1615;53.602;11.418;2022-12-18T08:39:05;102886.81;;;-4.26;100.00
3206;BME280;1615;53.602;11.418;2022-12-18T08:41:31;102887.09;;;-4.29;100.00
3206;BME280;1615;53.602;11.418;2022-12-18T08:43:56;102888.09;;;-4.30;100.00
3206;BME280;1615;53.602;11.418;2022-12-18T08:46:42;102844.88;;;-4.54;100.00
3206;BME280;1615;53.602;11.418;2022-12-18T08:49:09;102879.88;;;-4.19;100.00
3206;BME280;1615;53.602;11.418;2022-12-18T08:51:35;102850.03;;;-4.24;100.00
3206;BME280;1615;53.602;11.418;2022-12-18T08:54:01;102896.75;;;-4.09;100.00
3206;BME280;1615;53.602;11.418;2022-12-18T08:56:27;102770.06;;;-4.73;100.00
3206;BME280;1615;53.602;11.418;2022-12-18T08:58:53;102880.69;;;-4.09;100.00
3206;BME280;1615;53.602;11.418;2022-12-18T09:01:19;102882.72;;;-3.93;100.00
3206;BME280;1615;53.602;11.418;2022-12-18T09:03:44;102882.84;;;-3.85;100.00
3206;BME280;1615;53.602;11.418;2022-12-18T09:06:14;102868.59;;;-3.86;100.00
3206;BME280;1615;53.602;11.418;2022-12-18T09:08:41;102876.94;;;-3.89;100.00
3206;BME280;1615;53.602;11.418;2022-12-18T09:11:12;102777.81;;;-4.43;100.00
3206;BME280;1615;53.602;11.418;2022-12-18T09:13:38;102869.16;;;-3.82;100.00
3206;BME280;1615;53.602;11.418;2022-12-18T09:16:04;102876.19;;;-3.81;100.00
3206;BME280;1615;53.602;11.418;2022-12-18T09:18:29;102871.78;;;-3.73;100.00
3206;BME280;1615;53.602;11.418;2022-12-18T09:20:55;102876.34;;;-3.56;100.00
3206;BME280;1615;53.602;11.418;2022-12-18T09:23:20;102883.09;;;-3.52;100.00
3206;BME280;1615;53.602;11.418;2022-12-18T09:25:46;102876.28;;;-3.46;100.00
3206;BME280;1615;53.602;11.418;2022-12-18T09:28:14;102877.22;;;-3.38;100.00
3206;BME280;1615;53.602;11.418;2022-12-18T09:30:48;102876.38;;;-3.38;100.00
3206;BME280;1615;53.602;11.418;2022-12-18T09:33:14;102877.91;;;-3.36;100.00
3206;BME280;1615;53.602;11.418;2022-12-18T09:35:41;102874.13;;;-3.43;100.00
3206;BME280;1615;53.602;11.418;2022-12-18T09:38:08;102769.25;;;-4.19;100.00
3206;BME280;1615;53.602;11.418;2022-12-18T09:40:41;102900.25;;;-3.45;100.00
3206;BME280;1615;53.602;11.418;2022-12-18T09:43:13;102870.66;;;-3.53;100.00
3206;BME280;1615;53.602;11.418;2022-12-18T09:45:45;102896.69;;;-3.36;100.00
3206;BME280;1615;53.602;11.418;2022-12-18T09:48:25;102879.59;;;-3.35;100.00
3206;BME280;1615;53.602;11.418;2022-12-18T09:50:54;102879.59;;;-3.35;100.00
3206;BME280;1615;53.602;11.418;2022-12-18T09:53:24;102895.97;;;-3.38;100.00
3206;BME280;1615;53.602;11.418;2022-12-18T09:55:52;102876.84;;;-3.25;100.00
3206;BME280;1615;53.602;11.418;2022-12-18T10:00:52;102867.91;;;-3.16;100.00
3206;BME280;1615;53.602;11.418;2022-12-18T10:03:17;102888.88;;;-3.12;100.00
3206;BME280;1615;53.602;11.418;2022-12-18T10:14:14;102889.13;;;-2.88;100.00
3206;BME280;1615;53.602;11.418;2022-12-18T10:16:59;102881.50;;;-2.75;100.00
3206;BME280;1615;53.602;11.418;2022-12-18T10:19:49;102890.09;;;-2.71;100.00
3206;BME280;1615;53.602;11.418;2022-12-18T10:25:06;102884.72;;;-2.54;100.00
3206;BME280;1615;53.602;11.418;2022-12-18T10:27:39;102879.38;;;-2.46;100.00
3206;BME280;1615;53.602;11.418;2022-12-18T10:30:17;102805.34;;;-2.99;100.00
3206;BME280;1615;53.602;11.418;2022-12-18T10:32:43;102887.63;;;-2.47;100.00
3206;BME280;1615;53.602;11.418;2022-12-18T10:35:17;102890.81;;;-2.44;100.00
3206;BME280;1615;53.602;11.418;2022-12-18T10:38:20;102896.88;;;-2.42;100.00
3206;BME280;1615;53.602;11.418;2022-12-18T10:40:52;102886.84;;;-2.40;100.00
3206;BME280;1615;53.602;11.418;2022-12-18T10:46:12;102889.34;;;-2.38;100.00
3206;BME280;1615;53.602;11.418;2022-12-18T10:53:54;102902.94;;;-2.40;100.00
3206;BME280;1615;53.602;11.418;2022-12-18T10:56:20;102907.94;;;-2.45;100.00
3206;BME280;1615;53.602;11.418;2022-12-18T11:01:23;102892.66;;;-2.19;100.00
3206;BME280;1615;53.602;11.418;2022-12-18T11:06:24;102896.81;;;-1.99;100.00
3206;BME280;1615;53.602;11.418;2022-12-18T11:09:06;102894.50;;;-1.94;100.00
3206;BME280;1615;53.602;11.418;2022-12-18T11:11:48;102894.56;;;-1.86;100.00
3206;BME280;1615;53.602;11.418;2022-12-18T11:16:46;102839.28;;;-2.22;100.00
3206;BME280;1615;53.602;11.418;2022-12-18T11:19:34;102813.25;;;-2.47;100.00
3206;BME280;1615;53.602;11.418;2022-12-18T11:22:02;102802.38;;;-2.71;100.00
3206;BME280;1615;53.602;11.418;2022-12-18T11:24:33;102888.66;;;-2.15;100.00
3206;BME280;1615;53.602;11.418;2022-12-18T11:27:03;102850.28;;;-2.33;100.00
3206;BME280;1615;53.602;11.418;2022-12-18T11:29:36;102904.47;;;-2.12;100.00
3206;BME280;1615;53.602;11.418;2022-12-18T11:34:42;102824.16;;;-2.48;100.00
3206;BME280;1615;53.602;11.418;2022-12-18T11:37:11;102885.84;;;-2.05;100.00
3206;BME280;1615;53.602;11.418;2022-12-18T11:39:40;102876.09;;;-2.06;100.00
3206;BME280;1615;53.602;11.418;2022-12-18T11:42:13;102877.00;;;-1.98;100.00
3206;BME280;1615;53.602;11.418;2022-12-18T11:50:00;102879.69;;;-1.98;100.00
3206;BME280;1615;53.602;11.418;2022-12-18T11:52:31;102902.97;;;-1.81;100.00
3206;BME280;1615;53.602;11.418;2022-12-18T11:55:04;102811.00;;;-2.34;100.00
3206;BME280;1615;53.602;11.418;2022-12-18T11:57:52;102784.94;;;-2.41;100.00
3206;BME280;1615;53.602;11.418;2022-12-18T12:00:22;102846.41;;;-2.05;100.00
3206;BME280;1615;53.602;11.418;2022-12-18T12:03:15;102858.59;;;-1.85;100.00
3206;BME280;1615;53.602;11.418;2022-12-18T12:06:01;102860.28;;;-1.84;100.00
3206;BME280;1615;53.602;11.418;2022-12-18T12:12:12;102866.50;;;-1.83;100.00
3206;BME280;1615;53.602;11.418;2022-12-18T12:22:54;102889.16;;;-1.86;100.00
3206;BME280;1615;53.602;11.418;2022-12-18T12:31:50;102854.97;;;-1.68;100.00
3206;BME280;1615;53.602;11.418;2022-12-18T12:34:22;102851.47;;;-1.60;100.00
3206;BME280;1615;53.602;11.418;2022-12-18T12:37:22;102856.38;;;-1.48;100.00
3206;BME280;1615;53.602;11.418;2022-12-18T12:39:51;102845.47;;;-1.46;100.00
3206;BME280;1615;53.602;11.418;2022-12-18T12:42:31;102758.09;;;-2.00;100.00
3206;BME280;1615;53.602;11.418;2022-12-18T12:45:28;102834.84;;;-1.56;100.00
3206;BME280;1615;53.602;11.418;2022-12-18T12:47:57;102830.66;;;-1.50;100.00
3206;BME280;1615;53.602;11.418;2022-12-18T12:50:23;102813.88;;;-1.44;100.00
3206;BME280;1615;53.602;11.418;2022-12-18T12:52:52;102819.09;;;-1.35;100.00
3206;BME280;1615;53.602;11.418;2022-12-18T12:55:24;102835.03;;;-1.41;100.00
3206;BME280;1615;53.602;11.418;2022-12-18T12:58:02;102814.03;;;-1.46;100.00
3206;BME280;1615;53.602;11.418;2022-12-18T13:00:41;102810.97;;;-1.51;100.00
3206;BME280;1615;53.602;11.418;2022-12-18T13:05:54;102795.88;;;-1.36;100.00
3206;BME280;1615;53.602;11.418;2022-12-18T13:08:26;102718.03;;;-1.69;100.00
3206;BME280;1615;53.602;11.418;2022-12-18T13:10:53;102784.13;;;-1.27;100.00
3206;BME280;1615;53.602;11.418;2022-12-18T13:13:51;102782.13;;;-1.33;100.00
3206;BME280;1615;53.602;11.418;2022-12-18T13:16:24;102799.59;;;-1.37;100.00
3206;BME280;1615;53.602;11.418;2022-12-18T13:18:52;102764.94;;;-1.48;100.00
3206;BME280;1615;53.602;11.418;2022-12-18T13:21:28;102775.00;;;-1.50;100.00
3206;BME280;1615;53.602;11.418;2022-12-18T13:23:55;102777.88;;;-1.51;100.00
3206;BME280;1615;53.602;11.418;2022-12-18T13:26:28;102756.38;;;-1.43;100.00
3206;BME280;1615;53.602;11.418;2022-12-18T13:28:56;102764.63;;;-1.37;100.00
3206;BME280;1615;53.602;11.418;2022-12-18T13:34:18;102285.22;;;-4.24;100.00
3206;BME280;1615;53.602;11.418;2022-12-18T13:36:44;102759.94;;;-1.27;100.00
3206;BME280;1615;53.602;11.418;2022-12-18T13:41:40;102699.72;;;-1.58;100.00
3206;BME280;1615;53.602;11.418;2022-12-18T13:44:35;102742.09;;;-1.20;100.00
3206;BME280;1615;53.602;11.418;2022-12-18T13:47:05;102730.34;;;-1.27;100.00
3206;BME280;1615;53.602;11.418;2022-12-18T13:49:47;102654.53;;;-1.70;100.00
3206;BME280;1615;53.602;11.418;2022-12-18T13:52:21;102713.50;;;-1.29;100.00
3206;BME280;1615;53.602;11.418;2022-12-18T13:54:52;102554.88;;;-2.41;100.00
3206;BME280;1615;53.602;11.418;2022-12-18T13:57:33;102723.28;;;-1.28;100.00
3206;BME280;1615;53.602;11.418;2022-12-18T14:02:48;102688.63;;;-1.39;100.00
3206;BME280;1615;53.602;11.418;2022-12-18T14:05:24;102617.72;;;-1.78;100.00
3206;BME280;1615;53.602;11.418;2022-12-18T14:07:52;102659.06;;;-1.63;100.00
3206;BME280;1615;53.602;11.418;2022-12-18T14:10:18;102723.94;;;-1.26;100.00
3206;BME280;1615;53.602;11.418;2022-12-18T14:12:48;102721.56;;;-1.29;100.00
3206;BME280;1615;53.602;11.418;2022-12-18T14:20:44;102745.28;;;-1.32;100.00
3206;BME280;1615;53.602;11.418;2022-12-18T14:23:38;102755.88;;;-1.31;100.00
3206;BME280;1615;53.602;11.418;2022-12-18T14:28:45;102744.13;;;-1.38;100.00
3206;BME280;1615;53.602;11.418;2022-12-18T14:31:18;102676.50;;;-1.91;100.00
3206;BME280;1615;53.602;11.418;2022-12-18T14:33:44;102739.91;;;-1.56;100.00
3206;BME280;1615;53.602;11.418;2022-12-18T14:36:16;102735.69;;;-1.59;100.00